sensor_id;sensor_type;location;lat;lon;timestamp;temperature;humidity
45735;DHT22;31446;49.632;8.328;2023-03-14T00:14:40;11.00;99.90
45735;DHT22;31446;49.632;8.328;2023-03-14T00:29:47;11.00;99.90
45735;DHT22;31446;49.632;8.328;2023-03-14T00:44:53;10.90;99.90
45735;DHT22;31446;49.632;8.328;2023-03-14T00:59:59;11.00;99.90
45735;DHT22;31446;49.632;8.328;2023-03-14T01:15:09;10.80;99.90
45735;DHT22;31446;49.632;8.328;2023-03-14T01:30:16;10.90;99.90
45735;DHT22;31446;49.632;8.328;2023-03-14T02:00:57;10.90;99.90
45735;DHT22;31446;49.632;8.328;2023-03-14T02:16:05;10.70;99.90
45735;DHT22;31446;49.632;8.328;2023-03-14T02:31:11;10.90;99.90
45735;DHT22;31446;49.632;8.328;2023-03-14T02:46:20;10.90;99.90
45735;DHT22;31446;49.632;8.328;2023-03-14T03:01:26;10.80;99.90
45735;DHT22;31446;49.632;8.328;2023-03-14T03:16:32;10.60;99.90
45735;DHT22;31446;49.632;8.328;2023-03-14T03:31:39;10.70;99.90
45735;DHT22;31446;49.632;8.328;2023-03-14T03:46:45;10.70;99.90
45735;DHT22;31446;49.632;8.328;2023-03-14T04:01:51;10.70;99.90
45735;DHT22;31446;49.632;8.328;2023-03-14T04:16:57;10.70;99.90
45735;DHT22;31446;49.632;8.328;2023-03-14T04:32:04;10.50;99.90
45735;DHT22;31446;49.632;8.328;2023-03-14T04:47:10;10.50;99.90
45735;DHT22;31446;49.632;8.328;2023-03-14T05:02:16;10.70;99.90
45735;DHT22;31446;49.632;8.328;2023-03-14T05:17:22;10.80;99.90
45735;DHT22;31446;49.632;8.328;2023-03-14T05:32:28;10.90;99.90
45735;DHT22;31446;49.632;8.328;2023-03-14T05:47:34;10.90;99.90
45735;DHT22;31446;49.632;8.328;2023-03-14T06:02:40;11.00;99.90
45735;DHT22;31446;49.632;8.328;2023-03-14T06:17:47;11.10;99.90
45735;DHT22;31446;49.632;8.328;2023-03-14T06:32:53;11.10;99.90
45735;DHT22;31446;49.632;8.328;2023-03-14T06:47:59;11.10;99.90
45735;DHT22;31446;49.632;8.328;2023-03-14T07:03:05;11.10;99.90
45735;DHT22;31446;49.632;8.328;2023-03-14T07:18:11;11.00;99.90
45735;DHT22;31446;49.632;8.328;2023-03-14T07:33:17;11.20;99.90
45735;DHT22;31446;49.632;8.328;2023-03-14T07:48:24;11.80;99.90
45735;DHT22;31446;49.632;8.328;2023-03-14T08:03:30;12.20;99.90
45735;DHT22;31446;49.632;8.328;2023-03-14T08:18:36;12.30;99.90
45735;DHT22;31446;49.632;8.328;2023-03-14T08:33:43;13.20;99.90
45735;DHT22;31446;49.632;8.328;2023-03-14T08:48:49;13.70;99.90
45735;DHT22;31446;49.632;8.328;2023-03-14T09:03:55;13.30;99.90
45735;DHT22;31446;49.632;8.328;2023-03-14T09:19:01;13.40;99.90
45735;DHT22;31446;49.632;8.328;2023-03-14T09:34:08;13.70;99.90
45735;DHT22;31446;49.632;8.328;2023-03-14T09:49:19;13.30;99.90
45735;DHT22;31446;49.632;8.328;2023-03-14T10:04:27;13.00;99.90
45735;DHT22;31446;49.632;8.328;2023-03-14T10:19:35;13.40;99.90
45735;DHT22;31446;49.632;8.328;2023-03-14T10:34:42;12.70;99.90
45735;DHT22;31446;49.632;8.328;2023-03-14T10:49:51;12.60;99.90
45735;DHT22;31446;49.632;8.328;2023-03-14T11:05:04;12.00;99.90
45735;DHT22;31446;49.632;8.328;2023-03-14T11:20:24;11.90;99.90
45735;DHT22;31446;49.632;8.328;2023-03-14T11:35:38;12.10;99.90
45735;DHT22;31446;49.632;8.328;2023-03-14T11:50:51;12.30;99.90
45735;DHT22;31446;49.632;8.328;2023-03-14T12:06:12;11.90;99.90
45735;DHT22;31446;49.632;8.328;2023-03-14T12:21:23;11.20;99.90
45735;DHT22;31446;49.632;8.328;2023-03-14T12:37:10;11.20;99.90
45735;DHT22;31446;49.632;8.328;2023-03-14T12:52:21;11.90;99.90
45735;DHT22;31446;49.632;8.328;2023-03-14T13:08:01;11.00;99.90
45735;DHT22;31446;49.632;8.328;2023-03-14T13:23:04;11.20;99.90
45735;DHT22;31446;49.632;8.328;2023-03-14T13:38:17;10.70;99.90
45735;DHT22;31446;49.632;8.328;2023-03-14T13:53:24;10.20;99.90
45735;DHT22;31446;49.632;8.328;2023-03-14T14:08:31;9.90;99.90
45735;DHT22;31446;49.632;8.328;2023-03-14T14:23:37;11.20;99.90
45735;DHT22;31446;49.632;8.328;2023-03-14T14:38:49;10.90;99.90
45735;DHT22;31446;49.632;8.328;2023-03-14T14:54:11;10.90;99.90
45735;DHT22;31446;49.632;8.328;2023-03-14T15:09:18;11.70;99.90
45735;DHT22;31446;49.632;8.328;2023-03-14T15:24:24;11.50;99.90
45735;DHT22;31446;49.632;8.328;2023-03-14T15:39:31;11.70;97.30
45735;DHT22;31446;49.632;8.328;2023-03-14T15:54:37;11.20;97.20
45735;DHT22;31446;49.632;8.328;2023-03-14T16:09:43;10.90;98.90
45735;DHT22;31446;49.632;8.328;2023-03-14T16:24:50;10.80;98.90
45735;DHT22;31446;49.632;8.328;2023-03-14T16:39:56;10.80;97.90
45735;DHT22;31446;49.632;8.328;2023-03-14T16:55:03;10.50;99.50
45735;DHT22;31446;49.632;8.328;2023-03-14T17:10:10;10.10;99.90
45735;DHT22;31446;49.632;8.328;2023-03-14T17:25:16;9.90;99.90
45735;DHT22;31446;49.632;8.328;2023-03-14T17:40:22;9.60;99.90
45735;DHT22;31446;49.632;8.328;2023-03-14T17:55:29;9.10;99.90
45735;DHT22;31446;49.632;8.328;2023-03-14T18:10:35;8.20;99.90
45735;DHT22;31446;49.632;8.328;2023-03-14T18:25:44;7.70;99.90
45735;DHT22;31446;49.632;8.328;2023-03-14T18:40:50;7.50;99.90
45735;DHT22;31446;49.632;8.328;2023-03-14T18:55:56;7.40;99.90
45735;DHT22;31446;49.632;8.328;2023-03-14T19:11:04;6.40;99.90
45735;DHT22;31446;49.632;8.328;2023-03-14T19:26:12;5.90;99.90
45735;DHT22;31446;49.632;8.328;2023-03-14T19:41:23;5.60;99.90
45735;DHT22;31446;49.632;8.328;2023-03-14T19:56:30;5.50;99.90
45735;DHT22;31446;49.632;8.328;2023-03-14T20:11:36;4.50;99.90
45735;DHT22;31446;49.632;8.328;2023-03-14T20:26:46;3.80;99.90
45735;DHT22;31446;49.632;8.328;2023-03-14T20:41:57;3.50;99.90
45735;DHT22;31446;49.632;8.328;2023-03-14T20:57:04;3.40;99.90
45735;DHT22;31446;49.632;8.328;2023-03-14T21:12:10;3.20;99.90
45735;DHT22;31446;49.632;8.328;2023-03-14T21:27:18;3.40;99.90
45735;DHT22;31446;49.632;8.328;2023-03-14T21:42:25;4.00;99.90
45735;DHT22;31446;49.632;8.328;2023-03-14T21:57:31;4.30;99.90
45735;DHT22;31446;49.632;8.328;2023-03-14T22:12:38;4.40;99.90
45735;DHT22;31446;49.632;8.328;2023-03-14T22:27:44;4.50;99.90
45735;DHT22;31446;49.632;8.328;2023-03-14T22:42:53;4.20;99.90
45735;DHT22;31446;49.632;8.328;2023-03-14T22:57:59;4.00;99.90
45735;DHT22;31446;49.632;8.328;2023-03-14T23:13:05;4.10;99.90
45735;DHT22;31446;49.632;8.328;2023-03-14T23:28:12;4.10;99.90
45735;DHT22;31446;49.632;8.328;2023-03-14T23:43:19;4.00;99.90
45735;DHT22;31446;49.632;8.328;2023-03-14T23:58:26;3.70;99.90
